Time,TemperatureF,DewpointF,PressureIn,WindDirection,WindDirectionDegrees,WindSpeedMPH,WindSpeedGustMPH,Humidity,HourlyPrecipIn,Conditions,Clouds,dailyrainin,SoftwareType,DateUTC
2013-10-27 08:30:00,28.4,24.5,29.69,North,0,0.0,0.0,85,0.00,,,0.00,WUHU216HW,2013-10-27 13:30:00,
2013-10-27 08:31:00,28.4,24.8,29.69,North,0,0.0,0.0,86,0.00,,,0.00,WUHU216HW,2013-10-27 13:31:00,
2013-10-27 08:32:00,28.4,24.8,29.69,North,0,0.0,0.0,86,0.00,,,0.00,WUHU216HW,2013-10-27 13:32:00,
2013-10-27 08:37:00,29.0,25.3,29.70,North,0,0.0,0.0,86,0.00,,,0.00,WUHU216HW,2013-10-27 13:37:00,
2013-10-27 08:42:00,29.5,25.8,29.70,North,0,0.0,0.0,86,0.00,,,0.00,WUHU216HW,2013-10-27 13:42:00,
2013-10-27 08:47:00,30.4,27.6,29.69,North,0,0.0,0.0,89,0.00,,,0.00,WUHU216HW,2013-10-27 13:47:00,
2013-10-27 08:52:00,31.0,27.9,29.69,North,0,0.0,0.0,88,0.00,,,0.00,WUHU216HW,2013-10-27 13:52:00,
2013-10-27 08:57:00,31.3,27.9,29.69,NNW,338,0.0,0.0,87,0.00,,,0.00,WUHU216HW,2013-10-27 13:57:00,
2013-10-27 09:02:00,31.5,27.8,29.70,NNW,338,0.0,0.0,86,0.00,,,0.00,WUHU216HW,2013-10-27 14:02:00,
2013-10-27 09:07:00,32.2,28.5,29.70,ENE,68,0.0,0.0,86,0.00,,,0.00,WUHU216HW,2013-10-27 14:07:00,
2013-10-27 09:12:00,32.6,28.9,29.70,ENE,68,0.0,0.0,86,0.00,,,0.00,WUHU216HW,2013-10-27 14:12:00,
2013-10-27 09:17:00,32.9,29.2,29.70,ENE,68,0.0,0.0,86,0.00,,,0.00,WUHU216HW,2013-10-27 14:17:00,
2013-10-27 09:23:00,34.2,30.6,29.70,ENE,68,0.0,0.0,87,0.00,,,0.00,WUHU216HW,2013-10-27 14:23:00,
2013-10-27 09:28:00,34.9,31.1,29.70,SE,135,1.1,1.8,86,0.00,,,0.00,WUHU216HW,2013-10-27 14:28:00,
2013-10-27 09:33:00,35.6,31.5,29.70,SE,135,0.5,1.8,85,0.00,,,0.00,WUHU216HW,2013-10-27 14:33:00,
2013-10-27 09:38:00,36.2,32.0,29.70,SE,135,1.4,1.6,85,0.00,,,0.00,WUHU216HW,2013-10-27 14:38:00,
2013-10-27 09:43:00,37.1,32.7,29.70,SSW,203,1.6,1.8,84,0.00,,,0.00,WUHU216HW,2013-10-27 14:43:00,
2013-10-27 09:48:00,37.8,32.8,29.70,SW,225,0.9,1.8,82,0.00,,,0.00,WUHU216HW,2013-10-27 14:48:00,
2013-10-27 09:53:00,38.3,33.3,29.70,SW,225,1.1,1.8,82,0.00,,,0.00,WUHU216HW,2013-10-27 14:53:00,
2013-10-27 09:58:00,39.2,33.3,29.70,SSW,199,1.6,2.0,79,0.00,,,0.00,WUHU216HW,2013-10-27 14:58:00,
2013-10-27 10:03:00,40.0,33.9,29.69,WSW,237,1.7,2.7,79,0.00,,,0.00,WUHU216HW,2013-10-27 15:03:00,
2013-10-27 10:08:00,40.9,34.1,29.69,SSW,206,1.3,2.7,77,0.00,,,0.00,WUHU216HW,2013-10-27 15:08:00,
2013-10-27 10:14:00,41.4,34.0,29.69,South,187,2.3,3.1,75,0.00,,,0.00,WUHU216HW,2013-10-27 15:14:00,
2013-10-27 10:19:00,42.1,34.4,29.69,SW,225,2.7,3.8,74,0.00,,,0.00,WUHU216HW,2013-10-27 15:19:00,
2013-10-27 10:24:00,42.8,34.2,29.69,WSW,246,2.1,3.8,71,0.00,,,0.00,WUHU216HW,2013-10-27 15:24:00,
2013-10-27 10:29:00,43.4,33.9,29.69,SW,222,2.6,4.7,69,0.00,,,0.00,WUHU216HW,2013-10-27 15:29:00,
2013-10-27 10:34:00,43.9,33.3,29.69,WSW,248,4.0,5.6,66,0.00,,,0.00,WUHU216HW,2013-10-27 15:34:00,
2013-10-27 10:39:00,44.5,34.2,29.69,WNW,293,3.6,5.6,67,0.00,,,0.00,WUHU216HW,2013-10-27 15:39:00,
2013-10-27 10:44:00,45.0,33.6,29.69,SW,226,3.5,5.4,64,0.00,,,0.00,WUHU216HW,2013-10-27 15:44:00,
2013-10-27 10:49:00,45.7,33.9,29.69,West,270,2.5,5.4,63,0.00,,,0.00,WUHU216HW,2013-10-27 15:49:00,
2013-10-27 10:54:00,46.3,33.1,29.68,West,261,3.7,5.4,60,0.00,,,0.00,WUHU216HW,2013-10-27 15:54:00,
2013-10-27 10:59:00,46.8,33.7,29.69,WSW,248,4.3,5.4,60,0.00,,,0.00,WUHU216HW,2013-10-27 15:59:00,
2013-10-27 11:04:00,47.3,32.9,29.68,SW,231,4.6,6.5,57,0.00,,,0.00,WUHU216HW,2013-10-27 16:04:00,
2013-10-27 11:09:00,47.9,33.9,29.68,SSW,207,3.0,6.5,58,0.00,,,0.00,WUHU216HW,2013-10-27 16:09:00,
2013-10-27 11:15:00,48.6,33.6,29.68,West,270,3.6,5.8,56,0.00,,,0.00,WUHU216HW,2013-10-27 16:15:00,
2013-10-27 11:20:00,49.0,32.5,29.69,SSW,203,6.7,6.7,53,0.00,,,0.00,WUHU216HW,2013-10-27 16:20:00,
2013-10-27 11:25:00,49.5,33.5,29.68,SW,223,1.7,6.7,54,0.00,,,0.00,WUHU216HW,2013-10-27 16:25:00,
2013-10-27 11:30:00,50.0,33.1,29.68,WSW,240,4.1,6.9,52,0.00,,,0.00,WUHU216HW,2013-10-27 16:30:00,
2013-10-27 11:35:00,50.4,33.0,29.68,SW,235,3.4,8.1,51,0.00,,,0.00,WUHU216HW,2013-10-27 16:35:00,
2013-10-27 11:40:00,50.8,33.3,29.68,SW,231,3.0,8.1,51,0.00,,,0.00,WUHU216HW,2013-10-27 16:40:00,
2013-10-27 11:45:00,51.1,33.7,29.68,WSW,253,3.3,5.1,51,0.00,,,0.00,WUHU216HW,2013-10-27 16:45:00,
2013-10-27 11:50:00,51.7,33.1,29.68,West,270,3.6,5.4,49,0.00,,,0.00,WUHU216HW,2013-10-27 16:50:00,
2013-10-27 11:55:00,52.0,32.9,29.68,WSW,248,5.4,8.9,48,0.00,,,0.00,WUHU216HW,2013-10-27 16:55:00,
2013-10-27 12:00:00,52.7,34.1,29.67,WSW,248,3.8,8.9,49,0.00,,,0.00,WUHU216HW,2013-10-27 17:00:00,
2013-10-27 12:05:00,52.9,32.6,29.67,NNW,338,3.4,13.0,46,0.00,,,0.00,WUHU216HW,2013-10-27 17:05:00,
2013-10-27 12:11:00,53.3,33.0,29.67,WNW,289,4.2,13.0,46,0.00,,,0.00,WUHU216HW,2013-10-27 17:11:00,
2013-10-27 12:16:00,53.3,32.3,29.67,WNW,293,6.0,7.8,45,0.00,,,0.00,WUHU216HW,2013-10-27 17:16:00,
2013-10-27 12:21:00,53.3,33.0,29.66,West,270,5.4,6.3,46,0.00,,,0.00,WUHU216HW,2013-10-27 17:21:00,
2013-10-27 12:26:00,54.0,33.0,29.66,WNW,293,5.4,6.3,45,0.00,,,0.00,WUHU216HW,2013-10-27 17:26:00,
2013-10-27 12:31:00,54.4,32.8,29.66,SW,225,3.4,5.4,44,0.00,,,0.00,WUHU216HW,2013-10-27 17:31:00,
2013-10-27 12:36:00,54.4,32.8,29.66,WSW,253,5.6,6.7,44,0.00,,,0.00,WUHU216HW,2013-10-27 17:36:00,
2013-10-27 12:41:00,54.7,33.1,29.65,West,275,5.9,6.9,44,0.00,,,0.00,WUHU216HW,2013-10-27 17:41:00,
2013-10-27 12:46:00,54.7,33.1,29.65,SW,233,4.4,9.2,44,0.00,,,0.00,WUHU216HW,2013-10-27 17:46:00,
2013-10-27 12:51:00,55.4,34.8,29.65,SSW,203,3.6,9.2,46,0.00,,,0.00,WUHU216HW,2013-10-27 17:51:00,
2013-10-27 12:56:00,55.6,32.8,29.64,West,260,5.3,7.8,42,0.00,,,0.00,WUHU216HW,2013-10-27 17:56:00,
2013-10-27 13:02:00,55.6,33.9,29.64,SW,226,4.4,7.8,44,0.00,,,0.00,WUHU216HW,2013-10-27 18:02:00,
2013-10-27 13:07:00,56.0,33.1,29.64,NW,315,9.4,9.4,42,0.00,,,0.00,WUHU216HW,2013-10-27 18:07:00,
2013-10-27 13:12:00,55.8,32.4,29.63,WNW,284,4.3,9.4,41,0.00,,,0.00,WUHU216HW,2013-10-27 18:12:00,
2013-10-27 13:17:00,55.8,33.5,29.63,SW,225,3.1,8.5,43,0.00,,,0.00,WUHU216HW,2013-10-27 18:17:00,
2013-10-27 13:22:00,56.3,35.1,29.62,SW,225,4.0,8.9,45,0.00,,,0.00,WUHU216HW,2013-10-27 18:22:00,
2013-10-27 13:27:00,56.5,33.0,29.62,South,180,6.9,8.9,41,0.00,,,0.00,WUHU216HW,2013-10-27 18:27:00,
2013-10-27 13:32:00,56.3,32.9,29.62,WSW,237,4.1,8.5,41,0.00,,,0.00,WUHU216HW,2013-10-27 18:32:00,
2013-10-27 13:37:00,56.9,34.5,29.62,West,259,5.3,8.5,43,0.00,,,0.00,WUHU216HW,2013-10-27 18:37:00,
2013-10-27 13:42:00,57.4,35.6,29.61,SSW,212,2.5,6.9,44,0.00,,,0.00,WUHU216HW,2013-10-27 18:42:00,
2013-10-27 13:48:00,57.6,34.6,29.61,West,263,1.9,4.9,42,0.00,,,0.00,WUHU216HW,2013-10-27 18:48:00,
2013-10-27 13:53:00,58.0,33.8,29.61,WSW,246,2.8,5.8,40,0.00,,,0.00,WUHU216HW,2013-10-27 18:53:00,
2013-10-27 13:58:00,58.0,33.8,29.61,SW,232,3.6,6.9,40,0.00,,,0.00,WUHU216HW,2013-10-27 18:58:00,
2013-10-27 14:03:00,58.0,33.0,29.61,WSW,248,6.0,8.3,39,0.00,,,0.00,WUHU216HW,2013-10-27 19:03:00,
2013-10-27 14:08:00,58.3,32.7,29.61,SW,225,4.3,8.3,38,0.00,,,0.00,WUHU216HW,2013-10-27 19:08:00,
2013-10-27 14:13:00,58.0,32.4,29.60,WSW,243,2.9,7.6,38,0.00,,,0.00,WUHU216HW,2013-10-27 19:13:00,
2013-10-27 14:18:00,58.1,31.9,29.60,West,270,7.8,8.7,37,0.00,,,0.00,WUHU216HW,2013-10-27 19:18:00,
2013-10-27 14:23:00,58.1,32.5,29.60,WSW,244,4.7,11.2,38,0.00,,,0.00,WUHU216HW,2013-10-27 19:23:00,
2013-10-27 14:28:00,58.5,33.6,29.60,SSW,200,2.3,11.2,39,0.00,,,0.00,WUHU216HW,2013-10-27 19:28:00,
2013-10-27 14:33:00,58.5,32.9,29.60,SW,222,6.7,8.3,38,0.00,,,0.00,WUHU216HW,2013-10-27 19:33:00,
2013-10-27 14:38:00,58.7,32.3,29.60,SW,225,8.1,8.3,37,0.00,,,0.00,WUHU216HW,2013-10-27 19:38:00,
2013-10-27 14:43:00,58.7,33.0,29.60,WNW,293,2.2,8.1,38,0.00,,,0.00,WUHU216HW,2013-10-27 19:43:00,
2013-10-27 14:49:00,59.0,34.0,29.60,SW,225,4.5,5.8,39,0.00,,,0.00,WUHU216HW,2013-10-27 19:49:00,
2013-10-27 14:54:00,59.2,32.8,29.59,WSW,249,5.0,7.6,37,0.00,,,0.00,WUHU216HW,2013-10-27 19:54:00,
2013-10-27 14:59:00,59.2,32.1,29.59,SW,225,3.8,7.6,36,0.00,,,0.00,WUHU216HW,2013-10-27 19:59:00,
2013-10-27 15:04:00,59.0,32.7,29.59,West,261,4.6,7.8,37,0.00,,,0.00,WUHU216HW,2013-10-27 20:04:00,
2013-10-27 15:09:00,58.9,31.8,29.59,WSW,243,4.7,7.8,36,0.00,,,0.00,WUHU216HW,2013-10-27 20:09:00,
2013-10-27 15:14:00,59.0,32.7,29.59,SW,214,2.8,7.6,37,0.00,,,0.00,WUHU216HW,2013-10-27 20:14:00,
2013-10-27 15:19:00,58.9,32.5,29.59,SW,226,5.6,9.2,37,0.00,,,0.00,WUHU216HW,2013-10-27 20:19:00,
2013-10-27 15:24:00,58.9,33.2,29.59,South,180,4.3,9.2,38,0.00,,,0.00,WUHU216HW,2013-10-27 20:24:00,
2013-10-27 15:29:00,58.7,32.3,29.59,SW,225,5.4,8.5,37,0.00,,,0.00,WUHU216HW,2013-10-27 20:29:00,
2013-10-27 15:34:00,58.5,32.1,29.59,West,270,6.9,8.5,37,0.00,,,0.00,WUHU216HW,2013-10-27 20:34:00,
2013-10-27 15:40:00,58.3,32.0,29.59,WSW,255,3.3,7.6,37,0.00,,,0.00,WUHU216HW,2013-10-27 20:40:00,
2013-10-27 15:45:00,58.7,33.0,29.59,SW,225,10.1,10.1,38,0.00,,,0.00,WUHU216HW,2013-10-27 20:45:00,
2013-10-27 15:50:00,58.7,32.3,29.59,SW,225,4.7,10.1,37,0.00,,,0.00,WUHU216HW,2013-10-27 20:50:00,
2013-10-27 15:55:00,58.7,32.3,29.59,SW,220,8.6,9.8,37,0.00,,,0.00,WUHU216HW,2013-10-27 20:55:00,
2013-10-27 16:00:00,58.7,32.3,29.59,SW,225,4.3,9.8,37,0.00,,,0.00,WUHU216HW,2013-10-27 21:00:00,
2013-10-27 16:05:00,58.7,33.0,29.59,South,187,2.8,6.7,38,0.00,,,0.00,WUHU216HW,2013-10-27 21:05:00,
2013-10-27 16:10:00,58.9,33.2,29.59,WSW,248,1.6,6.7,38,0.00,,,0.00,WUHU216HW,2013-10-27 21:10:00,
2013-10-27 16:15:00,58.9,32.5,29.59,WSW,237,3.9,6.3,37,0.00,,,0.00,WUHU216HW,2013-10-27 21:15:00,
2013-10-27 16:20:00,58.9,33.2,29.58,WSW,248,4.0,6.3,38,0.00,,,0.00,WUHU216HW,2013-10-27 21:20:00,
2013-10-27 16:25:00,58.7,32.3,29.58,West,270,7.6,8.9,37,0.00,,,0.00,WUHU216HW,2013-10-27 21:25:00,
2013-10-27 16:31:00,58.7,32.3,29.58,WNW,293,5.8,8.9,37,0.00,,,0.00,WUHU216HW,2013-10-27 21:31:00,
2013-10-27 16:36:00,58.7,32.3,29.58,SW,225,6.0,7.8,37,0.00,,,0.00,WUHU216HW,2013-10-27 21:36:00,
2013-10-27 16:41:00,58.7,33.0,29.58,SW,231,3.3,7.8,38,0.00,,,0.00,WUHU216HW,2013-10-27 21:41:00,
2013-10-27 16:46:00,58.7,33.0,29.58,WSW,248,7.4,8.5,38,0.00,,,0.00,WUHU216HW,2013-10-27 21:46:00,
2013-10-27 16:51:00,58.7,33.8,29.58,SSW,210,1.9,8.5,39,0.00,,,0.00,WUHU216HW,2013-10-27 21:51:00,
2013-10-27 16:56:00,59.2,34.2,29.58,SW,217,2.4,5.6,39,0.00,,,0.00,WUHU216HW,2013-10-27 21:56:00,
2013-10-27 17:01:00,59.4,33.7,29.58,SSW,212,2.6,4.5,38,0.00,,,0.00,WUHU216HW,2013-10-27 22:01:00,
2013-10-27 17:06:00,59.2,32.8,29.58,SW,214,5.3,7.2,37,0.00,,,0.00,WUHU216HW,2013-10-27 22:06:00,
2013-10-27 17:11:00,59.0,32.7,29.58,SSW,203,5.4,8.7,37,0.00,,,0.00,WUHU216HW,2013-10-27 22:11:00,
2013-10-27 17:16:00,59.0,33.3,29.58,SW,233,1.9,8.7,38,0.00,,,0.00,WUHU216HW,2013-10-27 22:16:00,
2013-10-27 17:22:00,59.0,32.7,29.57,SW,221,3.5,7.6,37,0.00,,,0.00,WUHU216HW,2013-10-27 22:22:00,
2013-10-27 17:27:00,58.9,33.2,29.57,WSW,238,3.5,7.6,38,0.00,,,0.00,WUHU216HW,2013-10-27 22:27:00,
2013-10-27 17:32:00,58.9,32.5,29.57,WSW,251,2.9,6.0,37,0.00,,,0.00,WUHU216HW,2013-10-27 22:32:00,
2013-10-27 17:37:00,58.7,33.0,29.57,SSW,203,2.9,6.0,38,0.00,,,0.00,WUHU216HW,2013-10-27 22:37:00,
2013-10-27 17:42:00,58.3,32.7,29.57,SW,233,3.3,4.7,38,0.00,,,0.00,WUHU216HW,2013-10-27 22:42:00,
2013-10-27 17:47:00,58.0,33.0,29.57,SSW,213,2.2,4.7,39,0.00,,,0.00,WUHU216HW,2013-10-27 22:47:00,
2013-10-27 17:52:00,57.6,32.8,29.57,SW,225,2.9,3.4,39,0.00,,,0.00,WUHU216HW,2013-10-27 22:52:00,
2013-10-27 17:57:00,57.2,33.1,29.57,SW,225,2.2,4.0,40,0.00,,,0.00,WUHU216HW,2013-10-27 22:57:00,
2013-10-27 18:02:00,56.5,32.5,29.57,WSW,248,2.0,4.0,40,0.00,,,0.00,WUHU216HW,2013-10-27 23:02:00,
2013-10-27 18:07:00,56.2,32.1,29.57,SW,217,2.5,4.0,40,0.00,,,0.00,WUHU216HW,2013-10-27 23:07:00,
2013-10-27 18:12:00,55.8,32.4,29.57,SSW,203,1.6,4.0,41,0.00,,,0.00,WUHU216HW,2013-10-27 23:12:00,
2013-10-27 18:17:00,55.6,32.2,29.57,SSW,209,0.8,2.5,41,0.00,,,0.00,WUHU216HW,2013-10-27 23:17:00,
2013-10-27 18:22:00,55.4,32.6,29.58,SW,225,0.9,2.5,42,0.00,,,0.00,WUHU216HW,2013-10-27 23:22:00,
2013-10-27 18:27:00,55.3,33.0,29.58,SW,225,0.0,2.0,43,0.00,,,0.00,WUHU216HW,2013-10-27 23:27:00,
2013-10-27 18:32:00,55.1,32.9,29.58,SW,225,0.0,0.0,43,0.00,,,0.00,WUHU216HW,2013-10-27 23:32:00,
2013-10-27 18:38:00,54.7,33.1,29.58,SW,225,0.0,0.0,44,0.00,,,0.00,WUHU216HW,2013-10-27 23:38:00,
2013-10-27 18:43:00,54.2,32.6,29.58,SW,225,0.8,1.6,44,0.00,,,0.00,WUHU216HW,2013-10-27 23:43:00,
2013-10-27 18:48:00,53.8,32.9,29.58,SW,225,0.0,1.6,45,0.00,,,0.00,WUHU216HW,2013-10-27 23:48:00,
2013-10-27 18:53:00,53.5,33.0,29.58,SW,225,0.0,0.4,46,0.00,,,0.00,WUHU216HW,2013-10-27 23:53:00,
2013-10-27 18:58:00,52.9,32.6,29.58,SW,225,0.0,0.4,46,0.00,,,0.00,WUHU216HW,2013-10-27 23:58:00,
2013-10-27 19:03:00,52.4,32.1,29.58,SW,225,0.0,1.6,46,0.00,,,0.00,WUHU216HW,2013-10-28 00:03:00,
2013-10-27 19:08:00,51.8,32.8,29.58,SW,225,0.5,1.6,48,0.00,,,0.00,WUHU216HW,2013-10-28 00:08:00,
2013-10-27 19:13:00,51.1,33.2,29.59,SW,225,0.0,1.1,50,0.00,,,0.00,WUHU216HW,2013-10-28 00:13:00,
2013-10-27 19:18:00,50.4,32.6,29.58,SSW,203,0.5,1.1,50,0.00,,,0.00,WUHU216HW,2013-10-28 00:18:00,
2013-10-27 19:23:00,50.0,31.7,29.58,SSW,203,0.6,1.1,49,0.00,,,0.00,WUHU216HW,2013-10-28 00:23:00,
2013-10-27 19:29:00,49.3,31.0,29.58,SSE,158,1.1,1.6,49,0.00,,,0.00,WUHU216HW,2013-10-28 00:29:00,
2013-10-27 19:34:00,49.0,30.6,29.58,South,180,0.7,1.6,49,0.00,,,0.00,WUHU216HW,2013-10-28 00:34:00,
2013-10-27 19:39:00,48.8,30.4,29.58,South,180,0.2,1.1,49,0.00,,,0.00,WUHU216HW,2013-10-28 00:39:00,
2013-10-27 19:44:00,48.6,30.3,29.59,SSE,158,0.2,1.1,49,0.00,,,0.00,WUHU216HW,2013-10-28 00:44:00,
2013-10-27 19:49:00,48.1,30.2,29.58,SSW,201,1.3,1.6,50,0.00,,,0.00,WUHU216HW,2013-10-28 00:49:00,
2013-10-27 19:54:00,47.2,29.4,29.58,South,180,0.0,1.6,50,0.00,,,0.00,WUHU216HW,2013-10-28 00:54:00,
2013-10-27 19:59:00,46.8,29.6,29.58,SE,135,1.1,1.3,51,0.00,,,0.00,WUHU216HW,2013-10-28 00:59:00,
2013-10-27 20:04:00,46.6,30.8,29.59,SE,135,0.0,1.3,54,0.00,,,0.00,WUHU216HW,2013-10-28 01:04:00,
2013-10-27 20:09:00,46.4,31.1,29.59,SE,135,0.0,0.9,55,0.00,,,0.00,WUHU216HW,2013-10-28 01:09:00,
2013-10-27 20:15:00,45.9,31.1,29.59,SE,135,0.0,0.0,56,0.00,,,0.00,WUHU216HW,2013-10-28 01:15:00,
2013-10-27 20:20:00,45.5,31.1,29.59,SE,135,0.0,0.0,57,0.00,,,0.00,WUHU216HW,2013-10-28 01:20:00,
2013-10-27 20:25:00,45.0,30.7,29.59,SE,135,0.0,0.0,57,0.00,,,0.00,WUHU216HW,2013-10-28 01:25:00,
2013-10-27 20:30:00,44.6,30.3,29.59,SE,135,0.0,0.0,57,0.00,,,0.00,WUHU216HW,2013-10-28 01:30:00,
2013-10-27 20:35:00,43.6,30.2,29.59,SE,135,0.0,0.0,59,0.00,,,0.00,WUHU216HW,2013-10-28 01:35:00,
2013-10-27 20:40:00,43.0,30.1,29.60,SE,135,0.0,0.0,60,0.00,,,0.00,WUHU216HW,2013-10-28 01:40:00,
2013-10-27 20:45:00,42.8,29.4,29.59,SE,135,0.0,0.0,59,0.00,,,0.00,WUHU216HW,2013-10-28 01:45:00,
2013-10-27 20:50:00,42.1,29.6,29.59,SE,135,0.0,0.0,61,0.00,,,0.00,WUHU216HW,2013-10-28 01:50:00,
2013-10-27 20:55:00,41.8,29.3,29.60,SE,135,0.0,0.0,61,0.00,,,0.00,WUHU216HW,2013-10-28 01:55:00,
2013-10-27 21:00:00,41.4,30.2,29.60,SE,135,0.0,0.0,64,0.00,,,0.00,WUHU216HW,2013-10-28 02:00:00,
2013-10-27 21:05:00,41.4,30.5,29.60,SE,135,0.0,0.0,65,0.00,,,0.00,WUHU216HW,2013-10-28 02:05:00,
2013-10-27 21:10:00,41.2,30.0,29.60,SE,135,0.0,0.0,64,0.00,,,0.00,WUHU216HW,2013-10-28 02:10:00,
2013-10-27 21:15:00,40.9,30.0,29.60,SE,135,0.0,0.0,65,0.00,,,0.00,WUHU216HW,2013-10-28 02:15:00,
2013-10-27 21:20:00,40.9,30.0,29.60,SE,135,0.0,0.0,65,0.00,,,0.00,WUHU216HW,2013-10-28 02:20:00,
2013-10-27 21:26:00,40.5,29.3,29.61,SE,135,0.0,0.0,64,0.00,,,0.00,WUHU216HW,2013-10-28 02:26:00,
2013-10-27 21:31:00,39.6,28.4,29.61,ENE,68,3.1,3.1,64,0.00,,,0.00,WUHU216HW,2013-10-28 02:31:00,
2013-10-27 21:36:00,39.2,29.1,29.61,NE,45,1.5,3.1,67,0.00,,,0.00,WUHU216HW,2013-10-28 02:36:00,
2013-10-27 21:41:00,39.4,30.1,29.61,NE,45,0.0,3.1,69,0.00,,,0.00,WUHU216HW,2013-10-28 02:41:00,
2013-10-27 21:46:00,39.4,29.3,29.61,NE,45,0.0,0.0,67,0.00,,,0.00,WUHU216HW,2013-10-28 02:46:00,
2013-10-27 21:51:00,39.2,28.7,29.61,NE,45,0.0,0.0,66,0.00,,,0.00,WUHU216HW,2013-10-28 02:51:00,
2013-10-27 21:56:00,38.7,29.0,29.61,NE,45,0.0,0.0,68,0.00,,,0.00,WUHU216HW,2013-10-28 02:56:00,
2013-10-27 22:01:00,38.7,30.1,29.61,NE,45,0.0,0.0,71,0.00,,,0.00,WUHU216HW,2013-10-28 03:01:00,
2013-10-27 22:06:00,38.7,29.0,29.61,NE,45,0.0,0.0,68,0.00,,,0.00,WUHU216HW,2013-10-28 03:06:00,
2013-10-27 22:11:00,38.2,28.2,29.61,NE,45,0.0,0.0,67,0.00,,,0.00,WUHU216HW,2013-10-28 03:11:00,
2013-10-27 22:17:00,37.8,28.2,29.61,NE,45,0.0,0.0,68,0.00,,,0.00,WUHU216HW,2013-10-28 03:17:00,
2013-10-27 22:22:00,37.4,27.9,29.62,NE,45,0.0,0.0,68,0.00,,,0.00,WUHU216HW,2013-10-28 03:22:00,
2013-10-27 22:27:00,37.3,28.1,29.62,NE,45,0.0,0.9,69,0.00,,,0.00,WUHU216HW,2013-10-28 03:27:00,
2013-10-27 22:32:00,37.1,28.6,29.62,NE,45,0.0,0.9,71,0.00,,,0.00,WUHU216HW,2013-10-28 03:32:00,
2013-10-27 22:37:00,36.9,28.5,29.62,NE,45,0.0,0.0,71,0.00,,,0.00,WUHU216HW,2013-10-28 03:37:00,
2013-10-27 22:42:00,36.7,28.3,29.62,NE,45,0.0,0.0,71,0.00,,,0.00,WUHU216HW,2013-10-28 03:42:00,
2013-10-27 22:47:00,36.4,27.9,29.62,NE,45,0.0,0.0,71,0.00,,,0.00,WUHU216HW,2013-10-28 03:47:00,
2013-10-27 22:52:00,36.0,27.8,29.62,NE,45,0.0,0.0,72,0.00,,,0.00,WUHU216HW,2013-10-28 03:52:00,
2013-10-27 22:57:00,36.2,28.4,29.62,NE,45,0.0,0.0,73,0.00,,,0.00,WUHU216HW,2013-10-28 03:57:00,
2013-10-27 23:01:00,36.4,28.5,29.62,NE,45,0.0,0.0,73,0.00,,,0.00,WUHU216HW,2013-10-28 04:01:00,
2013-10-27 23:02:00,36.4,28.5,29.62,NE,45,0.0,0.0,73,0.00,,,0.00,WUHU216HW,2013-10-28 04:02:00,
2013-10-27 23:04:00,36.4,28.5,29.62,NE,45,0.0,0.0,73,0.00,,,0.00,WUHU216HW,2013-10-28 04:04:00,
2013-10-27 23:09:00,36.4,28.5,29.62,NE,45,0.0,0.0,73,0.00,,,0.00,WUHU216HW,2013-10-28 04:09:00,
2013-10-27 23:14:00,36.2,28.0,29.62,NE,45,0.0,0.0,72,0.00,,,0.00,WUHU216HW,2013-10-28 04:14:00,
2013-10-27 23:19:00,36.4,29.2,29.62,NE,45,0.0,0.0,75,0.00,,,0.00,WUHU216HW,2013-10-28 04:19:00,
2013-10-27 23:24:00,36.4,28.8,29.62,NE,45,0.0,0.0,74,0.00,,,0.00,WUHU216HW,2013-10-28 04:24:00,
2013-10-27 23:29:00,36.4,29.2,29.62,NE,45,0.0,0.0,75,0.00,,,0.00,WUHU216HW,2013-10-28 04:29:00,
2013-10-27 23:34:00,36.0,28.2,29.62,NE,45,0.0,0.0,73,0.00,,,0.00,WUHU216HW,2013-10-28 04:34:00,
2013-10-27 23:39:00,35.3,27.5,29.62,NE,45,0.0,0.0,73,0.00,,,0.00,WUHU216HW,2013-10-28 04:39:00,
2013-10-27 23:44:00,35.3,28.1,29.62,NE,45,0.0,0.0,75,0.00,,,0.00,WUHU216HW,2013-10-28 04:44:00,
2013-10-27 23:49:00,35.6,28.8,29.62,NE,45,0.0,0.0,76,0.00,,,0.00,WUHU216HW,2013-10-28 04:49:00,
2013-10-27 23:55:00,35.5,27.9,29.62,NE,45,0.0,0.0,74,0.00,,,0.00,WUHU216HW,2013-10-28 04:55:00,